Time;durP1;ratioP1;P1;durP2;ratioP2;P2;SDS_P1;SDS_P2;PMS_P1;PMS_P2;Temp;Humidity;BMP_temperature;BMP_pressure;BME280_temperature;BME280_humidity;BME280_pressure;Samples;Min_cycle;Max_cycle;Signal;HPM_P1;HPM_P2
2022/04/23 00:00:33;;;;;;;10.35;8.85;;;11.50;99.90;;;;;;5026604;28;20091;-76
2022/04/23 00:02:59;;;;;;;10.40;9.38;;;11.60;99.90;;;;;;5051854;28;20032;-76
2022/04/23 00:05:25;;;;;;;14.13;10.45;;;11.60;99.90;;;;;;5051629;28;20043;-76
2022/04/23 00:07:51;;;;;;;13.45;8.40;;;11.50;99.90;;;;;;5052950;28;20131;-76
2022/04/23 00:10:16;;;;;;;11.27;8.80;;;11.60;99.90;;;;;;5068712;28;20042;-76
2022/04/23 00:12:46;;;;;;;9.48;8.45;;;11.60;99.90;;;;;;5038993;28;20069;-75
2022/04/23 00:15:12;;;;;;;9.90;8.40;;;11.60;99.90;;;;;;5045609;28;20072;-75
2022/04/23 00:17:37;;;;;;;9.88;8.75;;;11.50;99.90;;;;;;5050706;28;20072;-75
2022/04/23 00:20:05;;;;;;;9.68;8.55;;;11.50;99.90;;;;;;5069110;28;20033;-75
2022/04/23 00:22:30;;;;;;;11.43;8.55;;;11.50;99.90;;;;;;5032211;28;20430;-75
2022/04/23 00:24:57;;;;;;;10.57;8.70;;;11.40;99.90;;;;;;5044842;28;20052;-75
2022/04/23 00:27:23;;;;;;;9.05;7.82;;;11.50;99.90;;;;;;5052444;28;20097;-76
2022/04/23 00:29:49;;;;;;;10.10;7.78;;;11.50;99.90;;;;;;5048460;28;20044;-76
2022/04/23 00:32:14;;;;;;;8.90;8.02;;;11.40;99.90;;;;;;5057170;28;20093;-75
2022/04/23 00:34:40;;;;;;;9.55;7.93;;;11.40;99.90;;;;;;5066875;28;20088;-75
2022/04/23 00:37:05;;;;;;;11.15;8.15;;;11.40;99.90;;;;;;5054587;28;20045;-75
2022/04/23 00:39:32;;;;;;;9.88;8.30;;;11.30;99.90;;;;;;5050915;28;20033;-75
2022/04/23 00:42:00;;;;;;;8.73;7.75;;;11.30;99.90;;;;;;5039005;28;20044;-75
2022/04/23 00:44:26;;;;;;;9.52;7.95;;;11.20;99.90;;;;;;5035311;28;20072;-75
2022/04/23 00:46:52;;;;;;;12.63;8.35;;;11.20;99.90;;;;;;5052920;28;20457;-75
2022/04/23 00:49:17;;;;;;;9.13;7.68;;;11.10;99.90;;;;;;5049354;28;20041;-75
2022/04/23 00:51:43;;;;;;;9.73;8.48;;;11.10;99.90;;;;;;5054161;28;20104;-75
2022/04/23 00:54:10;;;;;;;10.18;7.70;;;11.00;99.90;;;;;;5051766;28;20052;-75
2022/04/23 00:56:37;;;;;;;13.07;8.30;;;11.00;99.90;;;;;;5052557;28;20072;-75
2022/04/23 00:59:08;;;;;;;11.65;7.90;;;10.90;99.90;;;;;;5051347;28;20509;-75
2022/04/23 01:01:34;;;;;;;11.05;9.27;;;10.90;99.90;;;;;;5049658;28;20049;-75
2022/04/23 01:04:02;;;;;;;10.38;8.15;;;10.80;99.90;;;;;;5050076;28;20079;-75
2022/04/23 01:06:32;;;;;;;10.82;8.93;;;10.80;99.90;;;;;;5044812;28;20470;-75
2022/04/23 01:08:58;;;;;;;11.35;8.60;;;10.80;99.90;;;;;;5053136;28;20048;-75
2022/04/23 01:11:24;;;;;;;13.82;8.25;;;10.80;99.90;;;;;;5068865;28;20485;-76
2022/04/23 01:13:51;;;;;;;11.85;9.02;;;10.70;99.90;;;;;;5068166;28;20044;-76
2022/04/23 01:16:18;;;;;;;11.43;9.18;;;10.60;99.90;;;;;;5035939;28;20044;-76
2022/04/23 01:18:44;;;;;;;11.35;9.05;;;10.60;99.90;;;;;;5070170;28;20052;-76
2022/04/23 01:21:10;;;;;;;10.63;8.55;;;10.60;99.90;;;;;;5052520;28;20040;-76
2022/04/23 01:23:40;;;;;;;11.90;9.48;;;10.60;99.90;;;;;;5053273;28;20047;-76
2022/04/23 01:26:07;;;;;;;12.13;9.75;;;10.60;99.90;;;;;;5047258;28;20028;-76
2022/04/23 01:28:35;;;;;;;10.77;9.55;;;10.60;99.90;;;;;;5052618;28;20166;-76
2022/04/23 01:31:01;;;;;;;10.57;9.32;;;10.50;99.90;;;;;;5046923;28;20052;-76
2022/04/23 01:33:27;;;;;;;10.70;9.60;;;10.50;99.90;;;;;;5033944;28;20044;-76
2022/04/23 01:35:53;;;;;;;10.50;9.35;;;10.50;99.90;;;;;;5049975;28;20695;-76
2022/04/23 01:38:18;;;;;;;13.80;9.63;;;10.50;99.90;;;;;;5036119;28;20039;-76
2022/04/23 01:40:44;;;;;;;10.32;9.27;;;10.50;99.90;;;;;;5069343;28;20131;-76
2022/04/23 01:43:09;;;;;;;11.70;9.32;;;10.50;99.90;;;;;;5052141;28;20175;-76
2022/04/23 01:45:38;;;;;;;12.30;8.80;;;10.40;99.90;;;;;;5051686;28;20414;-76
2022/04/23 01:48:05;;;;;;;11.93;10.55;;;10.40;99.90;;;;;;5073044;28;20053;-76
2022/04/23 01:50:30;;;;;;;11.52;9.23;;;10.50;99.90;;;;;;5052949;28;20044;-76
2022/04/23 01:52:56;;;;;;;10.95;9.82;;;10.40;99.90;;;;;;5063646;22;20071;-77
2022/04/23 01:55:22;;;;;;;12.55;10.43;;;10.40;99.90;;;;;;5063695;28;20044;-77
2022/04/23 01:57:48;;;;;;;10.43;9.32;;;10.40;99.90;;;;;;5053388;28;20928;-77
2022/04/23 02:00:14;;;;;;;11.30;9.15;;;10.40;99.90;;;;;;5041614;28;20044;-77
2022/04/23 02:02:41;;;;;;;12.45;10.38;;;10.30;99.90;;;;;;5045106;28;20049;-77
2022/04/23 02:05:08;;;;;;;11.30;10.13;;;10.30;99.90;;;;;;5051689;28;20136;-77
2022/04/23 02:07:38;;;;;;;12.15;10.57;;;10.20;99.90;;;;;;5051656;28;20036;-77
2022/04/23 02:10:05;;;;;;;12.25;10.55;;;10.20;99.90;;;;;;5064570;28;20048;-77
2022/04/23 02:12:30;;;;;;;12.13;10.88;;;10.10;99.90;;;;;;5051571;28;20033;-77
2022/04/23 02:14:57;;;;;;;14.93;11.43;;;10.10;99.90;;;;;;5070874;28;20090;-77
2022/04/23 02:17:32;;;;;;;11.88;10.65;;;10.10;99.90;;;;;;5052185;28;20545;-77
2022/04/23 02:20:02;;;;;;;16.65;11.60;;;10.10;99.90;;;;;;5035068;28;20039;-77
2022/04/23 02:22:28;;;;;;;12.57;10.40;;;10.00;99.90;;;;;;5053625;28;20519;-78
2022/04/23 02:24:53;;;;;;;11.68;10.38;;;10.00;99.90;;;;;;5036523;28;20158;-77
2022/04/23 02:27:19;;;;;;;13.68;11.27;;;10.00;99.90;;;;;;5050825;28;20044;-78
2022/04/23 02:29:45;;;;;;;14.73;11.55;;;10.00;99.90;;;;;;5051267;28;20041;-78
2022/04/23 02:32:10;;;;;;;13.45;10.35;;;10.00;99.90;;;;;;5054479;28;20097;-78
2022/04/23 02:34:37;;;;;;;14.88;10.82;;;9.90;99.90;;;;;;5059588;28;20048;-78
2022/04/23 02:37:02;;;;;;;13.65;10.43;;;9.90;99.90;;;;;;5052285;28;20627;-77
2022/04/23 02:39:28;;;;;;;13.48;12.02;;;9.90;99.90;;;;;;5051553;28;20119;-78
2022/04/23 02:41:53;;;;;;;12.68;10.98;;;9.90;99.90;;;;;;5052449;28;20725;-77
2022/04/23 02:44:19;;;;;;;14.23;11.45;;;9.80;99.90;;;;;;5052272;28;20040;-78
2022/04/23 02:46:45;;;;;;;16.40;12.15;;;9.90;99.90;;;;;;5053201;28;20036;-77
2022/04/23 02:49:11;;;;;;;11.98;10.77;;;9.80;99.90;;;;;;5069514;28;20529;-77
2022/04/23 02:51:36;;;;;;;13.57;11.63;;;9.80;99.90;;;;;;5049697;28;20155;-77
2022/04/23 02:54:02;;;;;;;12.90;10.52;;;9.70;99.90;;;;;;5050329;28;20123;-77
2022/04/23 02:56:28;;;;;;;13.60;11.02;;;9.80;99.90;;;;;;5049592;28;20051;-78
2022/04/23 02:58:53;;;;;;;14.02;11.80;;;9.80;99.90;;;;;;5052409;28;20051;-77
2022/04/23 03:01:22;;;;;;;14.60;11.80;;;9.70;99.90;;;;;;5054542;28;20055;-77
2022/04/23 03:03:48;;;;;;;13.30;11.30;;;9.70;99.90;;;;;;5059844;28;20044;-78
2022/04/23 03:06:17;;;;;;;14.00;11.13;;;9.70;99.90;;;;;;5035907;28;20040;-78
2022/04/23 03:08:42;;;;;;;15.07;12.38;;;9.70;99.90;;;;;;5049937;28;20492;-78
2022/04/23 03:11:08;;;;;;;13.55;11.77;;;9.70;99.90;;;;;;5051839;28;20119;-77
2022/04/23 03:13:35;;;;;;;13.13;11.60;;;9.60;99.90;;;;;;5044105;28;20114;-77
2022/04/23 03:16:01;;;;;;;12.95;11.55;;;9.60;99.90;;;;;;5051871;28;20044;-77
2022/04/23 03:18:27;;;;;;;14.77;11.57;;;9.60;99.90;;;;;;5034936;28;20033;-78
2022/04/23 03:20:53;;;;;;;13.02;11.55;;;9.60;99.90;;;;;;5050868;28;20398;-77
2022/04/23 03:23:20;;;;;;;14.50;11.68;;;9.60;99.90;;;;;;5051978;28;20094;-78
2022/04/23 03:25:46;;;;;;;13.63;12.20;;;9.50;99.90;;;;;;5052295;28;20040;-77
2022/04/23 03:28:14;;;;;;;12.50;11.13;;;9.50;99.90;;;;;;5050540;28;20063;-78
2022/04/23 03:30:40;;;;;;;15.15;11.10;;;9.50;99.90;;;;;;5053374;28;20126;-78
2022/04/23 03:33:06;;;;;;;13.10;11.10;;;9.40;99.90;;;;;;5035613;28;20132;-77
2022/04/23 03:35:32;;;;;;;14.38;11.82;;;9.50;99.90;;;;;;5051331;28;20052;-78
2022/04/23 03:37:58;;;;;;;12.75;11.40;;;9.40;99.90;;;;;;5065430;28;20045;-78
2022/04/23 03:40:24;;;;;;;14.32;11.30;;;9.40;99.90;;;;;;5047514;28;20039;-78
2022/04/23 03:42:50;;;;;;;13.55;11.60;;;9.30;99.90;;;;;;5049499;28;20080;-77
2022/04/23 03:45:19;;;;;;;13.15;11.40;;;9.40;99.90;;;;;;5050876;28;20071;-77
2022/04/23 03:47:47;;;;;;;12.55;11.40;;;9.30;99.90;;;;;;5036405;28;20040;-78
2022/04/23 03:50:13;;;;;;;12.38;10.65;;;9.30;99.90;;;;;;5052127;28;20040;-78
2022/04/23 03:52:39;;;;;;;14.95;11.65;;;9.30;99.90;;;;;;5051151;28;20052;-78
2022/04/23 03:55:05;;;;;;;12.82;11.25;;;9.30;99.90;;;;;;5053818;28;20412;-78
2022/04/23 03:57:31;;;;;;;12.23;10.85;;;9.30;99.90;;;;;;5046331;28;20045;-77
2022/04/23 03:59:57;;;;;;;12.40;11.15;;;9.30;99.90;;;;;;5035106;28;20404;-77
2022/04/23 04:02:23;;;;;;;12.70;10.65;;;9.30;99.90;;;;;;5055138;28;20040;-77
2022/04/23 04:04:48;;;;;;;12.90;10.40;;;9.30;99.90;;;;;;5055966;28;20373;-78
2022/04/23 04:07:19;;;;;;;14.45;12.15;;;9.20;99.90;;;;;;5054017;28;20036;-77
2022/04/23 04:09:45;;;;;;;11.70;10.55;;;9.30;99.90;;;;;;5068045;28;20036;-78
2022/04/23 04:12:10;;;;;;;13.07;11.68;;;9.10;99.90;;;;;;5055820;28;20055;-78
2022/04/23 04:14:36;;;;;;;13.40;11.73;;;9.20;99.90;;;;;;5048829;28;20039;-77
2022/04/23 04:17:11;;;;;;;13.27;11.88;;;9.20;99.90;;;;;;5055604;28;20485;-78
2022/04/23 04:19:38;;;;;;;12.13;10.88;;;9.20;99.90;;;;;;5055315;28;20041;-78
2022/04/23 04:22:04;;;;;;;11.93;10.73;;;9.10;99.90;;;;;;5053255;28;20517;-78
2022/04/23 04:24:31;;;;;;;13.15;11.88;;;9.10;99.90;;;;;;5038000;28;20041;-78
2022/04/23 04:26:57;;;;;;;12.70;11.43;;;9.10;99.90;;;;;;5054917;28;20772;-78
2022/04/23 04:29:24;;;;;;;13.65;11.05;;;9.10;99.90;;;;;;5036685;28;20471;-77
2022/04/23 04:31:49;;;;;;;13.40;12.00;;;9.10;99.90;;;;;;5052970;28;20089;-78
2022/04/23 04:34:32;;;;;;;12.82;11.63;;;9.10;99.90;;;;;;5054128;28;20048;-78
2022/04/23 04:37:08;;;;;;;14.30;11.68;;;9.10;99.90;;;;;;5055377;28;20036;-78
2022/04/23 04:39:36;;;;;;;12.98;11.70;;;9.10;99.90;;;;;;5047745;28;20041;-78
2022/04/23 04:42:02;;;;;;;12.30;11.00;;;9.10;99.90;;;;;;5038751;28;20036;-77
2022/04/23 04:44:27;;;;;;;12.65;11.45;;;9.20;99.90;;;;;;5055967;28;20434;-78
2022/04/23 04:46:53;;;;;;;12.57;11.30;;;9.10;99.90;;;;;;5070249;28;20128;-78
2022/04/23 04:49:19;;;;;;;12.68;11.48;;;9.10;99.90;;;;;;5056073;28;20725;-78
2022/04/23 04:51:45;;;;;;;13.88;12.20;;;9.10;99.90;;;;;;5055747;28;20441;-78
2022/04/23 04:54:10;;;;;;;13.05;11.75;;;9.10;99.90;;;;;;5052982;28;20276;-78
2022/04/23 04:56:36;;;;;;;12.45;11.23;;;9.10;99.90;;;;;;5052664;28;20480;-78
2022/04/23 04:59:02;;;;;;;11.93;10.77;;;9.20;99.90;;;;;;5067947;28;20047;-78
2022/04/23 05:01:29;;;;;;;12.80;11.60;;;9.20;99.90;;;;;;5039303;28;20151;-78
2022/04/23 05:03:54;;;;;;;11.95;10.75;;;9.20;99.90;;;;;;5051443;28;20067;-78
2022/04/23 05:06:21;;;;;;;12.40;11.20;;;9.20;99.90;;;;;;5052149;28;20090;-78
2022/04/23 05:08:47;;;;;;;12.43;11.23;;;9.30;99.90;;;;;;5037483;28;20036;-78
2022/04/23 05:11:12;;;;;;;12.02;10.63;;;9.30;99.90;;;;;;5052260;28;20105;-78
2022/04/23 05:13:38;;;;;;;12.98;11.68;;;9.30;99.90;;;;;;5049903;28;20044;-78
2022/04/23 05:16:08;;;;;;;15.02;11.90;;;9.40;99.90;;;;;;5055162;28;20036;-78
2022/04/23 05:18:34;;;;;;;14.20;11.88;;;9.40;99.90;;;;;;5052834;28;20040;-78
2022/04/23 05:21:03;;;;;;;12.70;11.52;;;9.40;99.90;;;;;;5053089;28;20037;-78
2022/04/23 05:23:29;;;;;;;14.80;11.63;;;9.40;99.90;;;;;;5052177;28;20498;-78
2022/04/23 05:25:55;;;;;;;13.23;11.82;;;9.50;99.90;;;;;;5045270;28;20098;-78
2022/04/23 05:28:21;;;;;;;12.98;11.15;;;9.60;99.90;;;;;;5053194;28;20064;-78
2022/04/23 05:30:47;;;;;;;12.23;11.07;;;9.60;99.90;;;;;;5054717;28;20051;-78
2022/04/23 05:33:12;;;;;;;11.70;10.50;;;9.70;99.90;;;;;;5054515;28;20040;-78
2022/04/23 05:35:38;;;;;;;12.27;11.05;;;9.70;99.90;;;;;;5034937;28;20048;-78
2022/04/23 05:38:04;;;;;;;11.20;10.00;;;9.70;99.90;;;;;;5052187;28;20062;-78
2022/04/23 05:40:30;;;;;;;12.27;10.98;;;9.80;99.90;;;;;;5051184;28;20032;-78
2022/04/23 05:42:58;;;;;;;13.02;11.80;;;10.20;99.90;;;;;;5035200;28;20469;-78
2022/04/23 05:45:28;;;;;;;11.05;9.95;;;11.20;99.90;;;;;;5053829;28;20033;-78
2022/04/23 05:47:54;;;;;;;12.13;10.95;;;12.30;99.90;;;;;;5047512;28;20036;-78
2022/04/23 05:50:20;;;;;;;12.43;10.13;;;13.10;99.90;;;;;;5070658;28;20065;-78
2022/04/23 05:52:46;;;;;;;11.30;10.20;;;13.70;99.90;;;;;;5053717;28;20422;-78
2022/04/23 05:55:11;;;;;;;10.50;9.60;;;14.30;99.60;;;;;;5050399;28;20056;-78
2022/04/23 05:57:38;;;;;;;10.45;9.38;;;15.00;98.60;;;;;;5036664;28;20122;-79
2022/04/23 06:00:06;;;;;;;10.88;9.75;;;15.50;97.50;;;;;;5045153;28;20120;-78
2022/04/23 06:02:31;;;;;;;9.32;8.52;;;16.00;95.90;;;;;;5048075;28;20107;-78
2022/04/23 06:04:58;;;;;;;9.85;8.95;;;16.10;94.60;;;;;;5051096;28;20040;-78
2022/04/23 06:07:23;;;;;;;9.82;8.90;;;16.30;94.30;;;;;;5049673;28;20466;-79
2022/04/23 06:09:49;;;;;;;9.55;8.65;;;16.50;94.20;;;;;;5069875;28;20110;-78
2022/04/23 06:12:14;;;;;;;12.13;9.32;;;16.90;93.50;;;;;;5054256;28;20113;-78
2022/04/23 06:14:40;;;;;;;9.63;8.23;;;17.30;92.50;;;;;;5061797;28;20041;-79
2022/04/23 06:17:11;;;;;;;10.00;9.00;;;17.50;91.60;;;;;;5054170;28;20397;-78
2022/04/23 06:19:41;;;;;;;9.75;8.75;;;17.40;91.10;;;;;;5054132;28;20064;-78
2022/04/23 06:22:07;;;;;;;9.27;8.43;;;17.60;90.50;;;;;;5054255;28;20040;-79
2022/04/23 06:24:35;;;;;;;10.65;8.70;;;17.80;90.00;;;;;;5052445;28;20040;-79
2022/04/23 06:27:01;;;;;;;10.50;9.35;;;17.50;87.20;;;;;;5059227;28;20066;-78
2022/04/23 06:29:27;;;;;;;9.35;8.45;;;17.50;89.60;;;;;;5069283;28;20047;-78
2022/04/23 06:31:53;;;;;;;10.13;8.68;;;17.60;88.10;;;;;;5057733;28;20504;-79
2022/04/23 06:34:20;;;;;;;10.30;9.18;;;18.10;89.50;;;;;;5053093;28;20078;-79
2022/04/23 06:36:45;;;;;;;10.07;9.18;;;18.30;85.50;;;;;;5072443;28;20611;-79
2022/04/23 06:39:11;;;;;;;10.30;9.27;;;18.30;85.40;;;;;;5050779;28;20123;-79
2022/04/23 06:41:36;;;;;;;10.55;9.45;;;18.10;85.20;;;;;;5053856;28;20044;-78
2022/04/23 06:44:02;;;;;;;10.30;9.30;;;18.00;83.90;;;;;;5043798;28;20049;-79
2022/04/23 06:46:27;;;;;;;10.85;9.40;;;18.50;84.20;;;;;;5053340;28;20036;-79
2022/04/23 06:48:53;;;;;;;10.65;9.55;;;18.50;81.90;;;;;;5032032;28;20597;-79
2022/04/23 06:51:19;;;;;;;9.52;8.73;;;18.30;78.70;;;;;;5034825;28;20660;-78
2022/04/23 06:53:45;;;;;;;10.05;9.15;;;18.80;82.40;;;;;;5052779;28;20353;-79
2022/04/23 06:56:11;;;;;;;8.85;8.05;;;18.80;80.40;;;;;;5069876;28;20141;-79
2022/04/23 06:58:36;;;;;;;9.55;8.70;;;18.90;78.80;;;;;;5055737;28;20365;-78
2022/04/23 07:01:03;;;;;;;10.40;9.48;;;19.30;79.10;;;;;;5070736;28;20040;-79
2022/04/23 07:03:29;;;;;;;10.77;9.70;;;19.40;78.60;;;;;;5069958;28;20049;-78
2022/04/23 07:05:55;;;;;;;10.02;9.00;;;19.40;76.30;;;;;;5038582;28;20127;-79
2022/04/23 07:08:21;;;;;;;10.27;9.40;;;19.70;74.30;;;;;;5052286;28;20158;-79
2022/04/23 07:10:46;;;;;;;9.73;8.93;;;19.60;74.10;;;;;;5036987;28;20149;-79
2022/04/23 07:13:12;;;;;;;10.50;9.60;;;19.70;74.30;;;;;;5034314;28;20517;-79
2022/04/23 07:15:39;;;;;;;9.70;8.77;;;19.50;73.90;;;;;;5055177;28;20040;-79
2022/04/23 07:18:06;;;;;;;10.70;9.70;;;19.50;71.00;;;;;;5050783;28;20044;-80
2022/04/23 07:20:32;;;;;;;9.73;8.93;;;19.40;71.50;;;;;;5046058;28;20044;-77
2022/04/23 07:25:42;;;;;;;10.05;9.02;;;19.40;69.40;;;;;;5073955;28;20040;-76
2022/04/23 07:28:08;;;;;;;9.25;8.45;;;19.10;71.80;;;;;;5062375;28;20044;-79
2022/04/23 07:30:35;;;;;;;9.57;8.60;;;19.40;72.30;;;;;;5070780;28;20181;-79
2022/04/23 07:33:01;;;;;;;11.43;8.73;;;20.00;71.30;;;;;;5049471;28;20040;-79
2022/04/23 07:38:21;;;;;;;12.40;8.65;;;19.80;67.10;;;;;;5047789;28;20088;-79
2022/04/23 07:40:48;;;;;;;13.27;8.50;;;19.60;68.40;;;;;;5049523;28;20044;-79
2022/04/23 07:43:15;;;;;;;9.43;8.30;;;19.40;66.20;;;;;;5035053;28;20044;-79
2022/04/23 07:45:42;;;;;;;13.02;9.35;;;19.00;65.00;;;;;;5050610;28;20047;-79
2022/04/23 07:48:09;;;;;;;16.42;8.68;;;17.90;66.80;;;;;;5035205;28;20100;-79
2022/04/23 07:50:36;;;;;;;15.88;8.52;;;17.60;71.30;;;;;;5051944;28;20076;-78
2022/04/23 07:53:01;;;;;;;9.88;8.55;;;16.80;70.00;;;;;;5051973;28;20048;-79
2022/04/23 07:55:30;;;;;;;10.85;8.63;;;16.40;74.80;;;;;;5042834;28;20505;-78
2022/04/23 07:57:57;;;;;;;12.30;8.60;;;16.10;76.30;;;;;;5035045;28;20493;-78
2022/04/23 08:00:23;;;;;;;10.82;8.93;;;15.70;75.20;;;;;;5053023;28;20121;-78
2022/04/23 08:02:48;;;;;;;13.07;9.88;;;15.50;75.80;;;;;;5031138;28;20530;-79
2022/04/23 08:05:14;;;;;;;14.38;8.73;;;15.20;76.40;;;;;;5030919;28;20093;-77
2022/04/23 08:07:42;;;;;;;9.88;8.70;;;15.30;80.30;;;;;;5039808;28;20127;-78
2022/04/23 08:10:08;;;;;;;11.23;10.05;;;15.10;80.90;;;;;;5046422;28;20048;-78
2022/04/23 08:12:35;;;;;;;16.98;9.02;;;15.20;80.00;;;;;;5043213;28;20041;-78
2022/04/23 08:15:02;;;;;;;10.65;9.60;;;15.20;79.00;;;;;;5029531;28;20044;-80
2022/04/23 08:17:28;;;;;;;10.60;9.65;;;15.00;77.70;;;;;;5045146;28;20085;-79
2022/04/23 08:19:53;;;;;;;10.30;8.90;;;14.90;80.60;;;;;;5049675;28;20044;-79
2022/04/23 08:22:19;;;;;;;12.55;9.38;;;14.90;80.10;;;;;;5052461;28;20051;-78
2022/04/23 08:24:44;;;;;;;11.77;8.88;;;14.90;80.70;;;;;;5051932;28;20055;-78
2022/04/23 08:27:10;;;;;;;10.23;9.13;;;14.80;81.00;;;;;;5048299;28;20032;-79
2022/04/23 08:32:20;;;;;;;10.43;9.50;;;14.80;82.30;;;;;;5061512;28;20045;-79
2022/04/23 08:34:45;;;;;;;11.07;9.50;;;14.90;84.60;;;;;;5056095;28;20056;-79
2022/04/23 08:37:14;;;;;;;10.60;9.15;;;15.00;83.50;;;;;;5055461;28;24400;-79
2022/04/23 08:39:42;;;;;;;13.50;9.52;;;14.90;80.40;;;;;;5044107;28;20052;-79
2022/04/23 08:42:09;;;;;;;9.95;9.05;;;15.00;82.30;;;;;;5025963;28;20045;-79
2022/04/23 08:44:37;;;;;;;10.48;9.43;;;15.10;83.20;;;;;;5026178;28;20082;-80
2022/04/23 08:47:04;;;;;;;9.55;8.57;;;15.10;80.80;;;;;;5052189;28;20041;-80
2022/04/23 08:49:32;;;;;;;11.10;10.00;;;15.20;80.30;;;;;;5049424;28;20094;-80
2022/04/23 08:52:21;;;;;;;9.77;8.45;;;15.10;82.10;;;;;;5056021;28;20538;-80
2022/04/23 08:54:47;;;;;;;11.38;9.75;;;15.10;80.40;;;;;;5059077;28;20656;-80
2022/04/23 08:57:13;;;;;;;10.38;9.32;;;15.20;83.70;;;;;;5055652;28;20040;-79
2022/04/23 08:59:39;;;;;;;13.18;10.18;;;15.20;80.30;;;;;;5054717;28;20425;-80
2022/04/23 09:02:11;;;;;;;10.05;9.00;;;15.10;80.10;;;;;;5057438;28;20046;-80
2022/04/23 09:04:37;;;;;;;11.15;9.88;;;15.20;82.60;;;;;;5054818;28;20098;-80
2022/04/23 09:07:03;;;;;;;9.57;8.57;;;15.40;83.90;;;;;;5054700;28;20032;-80
2022/04/23 09:09:28;;;;;;;10.20;8.82;;;15.50;80.80;;;;;;5038781;28;20123;-80
2022/04/23 09:11:57;;;;;;;11.38;9.40;;;15.60;82.70;;;;;;5055943;28;20044;-80
2022/04/23 09:14:28;;;;;;;9.23;8.32;;;15.70;81.80;;;;;;5058250;28;20105;-81
2022/04/23 09:25:35;;;;;;;10.15;8.98;;;16.00;81.50;;;;;;5048800;28;20044;-80
2022/04/23 09:28:20;;;;;;;13.82;9.73;;;15.90;77.90;;;;;;5056254;28;20032;-80
2022/04/23 09:30:47;;;;;;;10.98;8.45;;;15.90;79.30;;;;;;5045591;28;20040;-80
2022/04/23 09:33:13;;;;;;;10.07;8.52;;;16.00;82.90;;;;;;5054049;28;20047;-80
2022/04/23 09:35:59;;;;;;;11.40;9.40;;;16.10;81.50;;;;;;5034883;28;20072;-79
2022/04/23 09:38:26;;;;;;;12.15;9.07;;;16.40;80.70;;;;;;5058249;28;20044;-80
2022/04/23 09:40:57;;;;;;;11.23;10.02;;;16.40;80.90;;;;;;5039510;28;20497;-80
2022/04/23 09:43:26;;;;;;;11.95;8.85;;;16.30;79.70;;;;;;5052573;28;20372;-79
2022/04/23 09:46:03;;;;;;;10.13;9.23;;;16.40;76.80;;;;;;5048001;28;20502;-79
2022/04/23 09:48:30;;;;;;;12.18;9.05;;;16.50;78.60;;;;;;5036821;28;20032;-80
2022/04/23 09:50:56;;;;;;;12.13;9.68;;;16.70;80.70;;;;;;5033437;28;20111;-79
2022/04/23 09:53:27;;;;;;;10.25;8.50;;;16.60;77.70;;;;;;5037587;28;20040;-79
2022/04/23 09:55:54;;;;;;;10.68;8.82;;;16.80;78.20;;;;;;5047001;28;20040;-79
2022/04/23 09:58:20;;;;;;;10.85;8.60;;;16.70;79.80;;;;;;5049351;28;20076;-80
2022/04/23 10:00:47;;;;;;;10.23;9.13;;;16.70;72.70;;;;;;5035121;28;20123;-80
2022/04/23 10:03:13;;;;;;;8.73;8.02;;;16.50;74.00;;;;;;5066082;28;20044;-79
2022/04/23 10:05:48;;;;;;;9.50;8.38;;;16.50;73.20;;;;;;5050203;28;20044;-79
2022/04/23 10:08:22;;;;;;;9.65;8.73;;;16.50;75.50;;;;;;5047435;28;20055;-79
2022/04/23 10:10:55;;;;;;;10.20;9.20;;;16.40;71.80;;;;;;5049597;28;20048;-77
2022/04/23 10:13:23;;;;;;;10.00;8.98;;;16.40;72.80;;;;;;5037781;28;20160;-78
2022/04/23 10:15:51;;;;;;;7.32;6.63;;;16.40;72.70;;;;;;5051328;28;20044;-78
2022/04/23 10:18:16;;;;;;;9.90;8.98;;;16.60;78.10;;;;;;5047084;28;20048;-78
2022/04/23 10:21:01;;;;;;;10.38;8.45;;;16.60;69.60;;;;;;5050790;28;20028;-78
2022/04/23 10:23:46;;;;;;;10.52;8.88;;;16.80;76.40;;;;;;5036870;28;20052;-78
2022/04/23 10:26:34;;;;;;;9.88;8.88;;;16.90;76.80;;;;;;5042276;28;21936;-78
2022/04/23 10:29:01;;;;;;;10.00;9.02;;;16.70;70.10;;;;;;5048026;28;20166;-79
2022/04/23 10:31:27;;;;;;;9.63;7.97;;;16.70;73.50;;;;;;5043068;28;20044;-78
2022/04/23 10:33:52;;;;;;;10.20;9.20;;;16.90;78.30;;;;;;5030469;28;20486;-79
2022/04/23 10:36:20;;;;;;;9.70;8.82;;;17.20;77.30;;;;;;5030619;28;20052;-79
2022/04/23 10:38:51;;;;;;;8.15;7.35;;;17.30;73.40;;;;;;5043412;28;20055;-79
2022/04/23 10:41:22;;;;;;;10.75;7.70;;;17.20;69.60;;;;;;5040028;28;20052;-78
2022/04/23 10:43:47;;;;;;;9.32;8.35;;;17.00;67.90;;;;;;5045885;28;20044;-79
2022/04/23 10:46:39;;;;;;;9.13;8.27;;;17.00;73.00;;;;;;5044497;28;20037;-79
2022/04/23 10:49:17;;;;;;;10.23;9.30;;;17.10;75.00;;;;;;5044172;28;20041;-79
2022/04/23 10:51:57;;;;;;;9.52;8.60;;;17.20;69.90;;;;;;5036341;28;20060;-79
2022/04/23 10:54:41;;;;;;;9.77;8.77;;;17.30;72.10;;;;;;5046322;28;20060;-79
2022/04/23 10:57:11;;;;;;;9.23;8.43;;;17.50;75.40;;;;;;5047751;28;20051;-78
2022/04/23 10:59:40;;;;;;;7.85;7.13;;;17.40;67.20;;;;;;5050748;28;20044;-78
2022/04/23 11:02:21;;;;;;;8.85;8.07;;;17.50;73.40;;;;;;5046889;28;20138;-78
2022/04/23 11:13:53;;;;;;;8.63;6.90;;;17.50;67.20;;;;;;5052307;28;20060;-77
2022/04/23 11:16:21;;;;;;;9.60;8.00;;;17.70;69.80;;;;;;5051008;28;20044;-78
2022/04/23 11:18:54;;;;;;;11.07;8.52;;;17.50;68.00;;;;;;5046100;28;20052;-77
2022/04/23 11:21:32;;;;;;;12.20;8.50;;;17.50;64.90;;;;;;5054763;28;20036;-77
2022/04/23 11:24:01;;;;;;;9.30;8.48;;;17.70;72.70;;;;;;5032316;28;20401;-78
2022/04/23 11:26:39;;;;;;;9.07;8.32;;;17.60;68.40;;;;;;5050924;28;20055;-78
2022/04/23 11:29:05;;;;;;;9.30;8.50;;;17.70;66.00;;;;;;5049319;28;20430;-78
2022/04/23 11:31:31;;;;;;;9.57;8.48;;;17.90;67.50;;;;;;5050305;28;20055;-78
2022/04/23 11:33:59;;;;;;;9.52;8.63;;;17.80;68.00;;;;;;5034192;28;20044;-78
2022/04/23 11:36:26;;;;;;;8.05;7.25;;;17.90;68.10;;;;;;5052152;28;20101;-78
2022/04/23 11:38:56;;;;;;;10.15;8.38;;;17.90;65.70;;;;;;5035018;28;20047;-78
2022/04/23 11:41:33;;;;;;;7.70;6.90;;;17.80;62.80;;;;;;5052121;28;20082;-78
2022/04/23 11:44:15;;;;;;;8.52;7.72;;;17.80;65.00;;;;;;5033962;28;20036;-77
2022/04/23 11:46:48;;;;;;;11.00;8.57;;;18.00;68.00;;;;;;5051263;28;20060;-77
2022/04/23 11:49:25;;;;;;;9.07;8.25;;;17.90;62.90;;;;;;5052454;28;20047;-78
2022/04/23 11:51:51;;;;;;;7.60;6.90;;;17.90;65.40;;;;;;5046402;28;20079;-77
2022/04/23 11:54:16;;;;;;;9.18;8.38;;;18.10;67.20;;;;;;5031517;28;20036;-77
2022/04/23 11:56:44;;;;;;;9.48;8.07;;;17.90;60.90;;;;;;5042629;28;20124;-77
2022/04/23 11:59:11;;;;;;;9.27;8.43;;;17.80;62.10;;;;;;5044251;28;20024;-77
2022/04/23 12:01:40;;;;;;;10.18;7.07;;;17.80;64.50;;;;;;5041698;28;20045;-77
2022/04/23 12:04:06;;;;;;;7.97;7.20;;;18.00;66.40;;;;;;5048106;28;20032;-77
2022/04/23 12:06:46;;;;;;;8.65;7.50;;;18.00;64.50;;;;;;5045675;28;20044;-77
2022/04/23 12:09:12;;;;;;;7.93;7.25;;;18.00;62.10;;;;;;5049172;28;20033;-77
2022/04/23 12:11:39;;;;;;;7.45;6.85;;;18.00;62.80;;;;;;5035690;28;20123;-77
2022/04/23 12:14:05;;;;;;;9.60;7.35;;;18.10;62.10;;;;;;5061494;28;20501;-77
2022/04/23 12:16:39;;;;;;;8.95;7.35;;;18.10;58.80;;;;;;5041026;28;20044;-77
2022/04/23 12:19:17;;;;;;;10.00;7.32;;;18.10;61.30;;;;;;5031181;28;20572;-77
2022/04/23 12:21:56;;;;;;;9.30;7.57;;;18.20;63.50;;;;;;5042903;28;20047;-77
2022/04/23 12:24:35;;;;;;;10.40;7.05;;;18.30;62.50;;;;;;5047602;28;20055;-77
2022/04/23 12:27:04;;;;;;;7.60;6.90;;;18.30;60.80;;;;;;5046385;28;20094;-78
2022/04/23 12:40:45;;;;;;;6.35;5.85;;;18.60;58.90;;;;;;5047782;28;19924;-78
2022/04/23 12:43:30;;;;;;;13.27;6.60;;;18.50;55.40;;;;;;5038595;28;20044;-78
2022/04/23 12:46:07;;;;;;;8.57;7.78;;;18.50;60.30;;;;;;5047518;28;20040;-78
2022/04/23 12:48:52;;;;;;;7.93;6.18;;;18.50;56.80;;;;;;5057874;28;20071;-78
2022/04/23 12:51:18;;;;;;;12.35;6.72;;;18.50;62.90;;;;;;5039299;28;20044;-78
2022/04/23 12:53:43;;;;;;;7.30;6.63;;;18.50;57.80;;;;;;5051401;28;20106;-78
2022/04/23 12:56:09;;;;;;;16.33;7.35;;;18.40;59.50;;;;;;5050957;28;20094;-78
2022/04/23 12:58:34;;;;;;;7.78;5.90;;;18.40;55.40;;;;;;5050337;28;20048;-78
2022/04/23 13:01:00;;;;;;;7.10;6.40;;;18.50;61.70;;;;;;5038386;28;20033;-78
2022/04/23 13:03:39;;;;;;;13.18;6.75;;;18.70;60.90;;;;;;5051716;28;20041;-78
2022/04/23 13:08:54;;;;;;;13.40;6.50;;;18.70;58.90;;;;;;5052449;28;20119;-78
2022/04/23 13:08:56;;;;;;;8.00;7.20;;;18.60;57.70;;;;;;5062135;28;20079;-78
2022/04/23 13:11:27;;;;;;;8.43;6.70;;;18.60;61.30;;;;;;5054046;28;20500;-78
2022/04/23 13:14:01;;;;;;;7.43;6.67;;;18.70;62.70;;;;;;5056648;28;20036;-78
2022/04/23 13:16:28;;;;;;;7.07;6.30;;;18.70;58.90;;;;;;5055746;28;20068;-78
2022/04/23 13:18:55;;;;;;;8.45;6.18;;;18.80;58.20;;;;;;5032772;28;20040;-78